Monday, June 25, 2018, 9:25 AM EDT
Back to Local

KPHL, Philadelphia International Airpt

Location: Philadelphia, PA, United States Lat: 39.867
Local Time: 9:25 AM EDT (13:25 GMT) Lon: -75.233
Time Zone: US/Eastern Elev: 19 ft

Show me the last for .
Show Decoded

2018-06-25 08:54 METAR KPHL 251254Z 33011KT 10SM FEW200 SCT300 22/15 A3001 RMK AO2 SLP160
                 T02220150 =
2018-06-25 07:54 METAR KPHL 251154Z 33009G17KT 10SM FEW120 FEW200 SCT300 21/14 A3000 RMK AO2
                 SLP158 T02110144 10217 20200 51025 $ =
2018-06-25 06:54 METAR KPHL 251054Z 33010KT 10SM FEW120 FEW200 SCT300 21/14 A2999 RMK AO2 SLP153
                 T02060144 $ =
2018-06-25 05:54 METAR KPHL 250954Z 34009KT 10SM FEW040 BKN120 BKN250 20/16 A2996 RMK AO2 SLP143
                 T02000161 $ =
2018-06-25 04:54 METAR KPHL 250854Z 33011KT 10SM SCT250 21/16 A2993 RMK AO2 SLP134 T02060161
                 53016 $ =
2018-06-25 03:54 METAR KPHL 250754Z 30008KT 10SM FEW220 21/16 A2990 RMK AO2 SLP124 T02110156 $ =
2018-06-25 02:54 METAR KPHL 250654Z 28008KT 10SM FEW220 22/16 A2989 RMK AO2 SLP122 T02170156 $ =
2018-06-25 01:54 METAR KPHL 250554Z 28005KT 10SM FEW260 22/16 A2988 RMK AO2 SLP118 60000
                 T02170156 10283 20217 50006 $ =
2018-06-25 00:54 METAR KPHL 250454Z 28010KT 10SM CLR 23/16 A2988 RMK AO2 SLP118 T02280161
                 403170200 $ =
2018-06-24 23:54 METAR KPHL 250354Z 29009KT 10SM CLR 23/17 A2987 RMK AO2 SLP114 T02330172 $ =
2018-06-24 22:54 METAR KPHL 250254Z 28009KT 250V320 10SM FEW050 FEW120 24/19 A2986 RMK AO2 SLP112
                 60000 T02390189 51014 $ =
2018-06-24 21:54 METAR KPHL 250154Z 27011KT 10SM FEW048 FEW120 24/19 A2986 RMK AO2 SLP111
                 T02440194 $ =
2018-06-24 20:54 METAR KPHL 250054Z 27005KT 10SM FEW050 BKN100 BKN250 26/19 A2983 RMK AO2 WSHFT
                 2352 RAE25 SLP102 P0000 T02560189 $ =
2018-06-24 19:54 METAR KPHL 242354Z 25012KT 10SM -RA SCT050 BKN090 BKN250 28/19 A2982 RMK AO2
                 RAB51 SLP097 OCNL LTGCG DSNT N CB DSNT N MOV E P0000 60000 T02830189 10317 20283
                 53009 $ =
2018-06-24 18:54 METAR KPHL 242254Z 23011KT 10SM SCT050 BKN090 BKN250 29/18 A2979 RMK AO2 SLP088
                 OCNL LTGCG DSNT NW CB DSNT NW MOV E T02940183 $ =
2018-06-24 17:54 METAR KPHL 242154Z 23014KT 10SM SCT050 BKN090 BKN250 31/18 A2979 RMK AO2 SLP089
                 T03060183 $ =
2018-06-24 16:54 METAR KPHL 242054Z 22013KT 10SM SCT050 BKN090 BKN250 31/19 A2980 RMK AO2 SLP089
                 T03110189 56010 $ =
2018-06-24 15:54 METAR KPHL 241954Z 22008KT 10SM BKN050 BKN090 BKN250 31/19 A2980 RMK AO2 SLP092
                 T03060189 $ =
2018-06-24 14:54 METAR KPHL 241854Z 25009KT 10SM SCT050 SCT065 BKN100 BKN250 30/18 A2980 RMK AO2
                 WSHFT 1816 SLP091 T03000178 $ =
2018-06-24 14:36 METAR KPHL 241836Z 24011KT 10SM FEW050 SCT065 BKN100 BKN250 30/18 A2982 RMK AO2
                 WSHFT 1816 T03000183 $ =
2018-06-24 13:54 METAR KPHL 241754Z 23008KT 10SM SCT050 SCT065 BKN095 BKN250 31/18 A2983 RMK AO2
                 SLP099 T03060178 10311 20228 56007 $ =
2018-06-24 12:54 METAR KPHL 241654Z 25010KT 10SM SCT035 BKN250 30/18 A2983 RMK AO2 SLP100
                 T03000183 $ =
2018-06-24 11:54 METAR KPHL 241554Z 22008KTSCT250 28/19 A2984 RMK AO2 SLP104 T02830189 $ =
2018-06-24 10:54 METAR KPHL 241454Z 23010KT 10SM FEW020 SCT170 SCT250 27/19 A2985 RMK AO2 SLP106
                 T02720194 58002 $ =
2018-06-24 09:54 METAR KPHL 241354Z 24010KT 10SM FEW015 FEW070 SCT170 SCT250 26/20 A2985 RMK AO2
                 SLP108 T02610200 $ =

Support USWX by starting your Amazon purchase here.